sensor_id;sensor_type;location;lat;lon;timestamp;temperature;humidity
50738;DHT22;36703;48.154;17.126;2024-01-16T00:00:58;6.80;45.80
50738;DHT22;36703;48.154;17.126;2024-01-16T00:05:00;6.90;49.80
50738;DHT22;36703;48.154;17.126;2024-01-16T00:09:01;6.30;50.40
50738;DHT22;36703;48.154;17.126;2024-01-16T00:13:03;6.60;49.30
50738;DHT22;36703;48.154;17.126;2024-01-16T00:17:04;6.90;50.00
50738;DHT22;36703;48.154;17.126;2024-01-16T00:21:06;6.70;50.00
50738;DHT22;36703;48.154;17.126;2024-01-16T00:25:07;6.80;48.60
50738;DHT22;36703;48.154;17.126;2024-01-16T00:29:09;6.70;48.20
50738;DHT22;36703;48.154;17.126;2024-01-16T00:33:13;6.70;48.10
50738;DHT22;36703;48.154;17.126;2024-01-16T00:37:14;7.30;48.60
50738;DHT22;36703;48.154;17.126;2024-01-16T00:41:15;6.60;48.30
50738;DHT22;36703;48.154;17.126;2024-01-16T00:45:17;6.50;48.30
50738;DHT22;36703;48.154;17.126;2024-01-16T00:49:18;6.60;48.10
50738;DHT22;36703;48.154;17.126;2024-01-16T00:53:19;6.50;48.10
50738;DHT22;36703;48.154;17.126;2024-01-16T00:57:21;6.60;48.00
50738;DHT22;36703;48.154;17.126;2024-01-16T01:01:22;6.50;47.80
50738;DHT22;36703;48.154;17.126;2024-01-16T01:05:24;6.60;47.90
50738;DHT22;36703;48.154;17.126;2024-01-16T01:09:29;6.60;47.80
50738;DHT22;36703;48.154;17.126;2024-01-16T01:13:30;6.50;47.80
50738;DHT22;36703;48.154;17.126;2024-01-16T01:17:32;6.30;47.70
50738;DHT22;36703;48.154;17.126;2024-01-16T01:21:33;6.50;47.60
50738;DHT22;36703;48.154;17.126;2024-01-16T01:25:36;6.50;47.40
50738;DHT22;36703;48.154;17.126;2024-01-16T01:29:37;6.50;47.50
50738;DHT22;36703;48.154;17.126;2024-01-16T01:33:39;6.50;47.50
50738;DHT22;36703;48.154;17.126;2024-01-16T01:37:41;6.50;47.30
50738;DHT22;36703;48.154;17.126;2024-01-16T01:41:42;6.50;47.60
50738;DHT22;36703;48.154;17.126;2024-01-16T01:45:43;6.80;47.60
50738;DHT22;36703;48.154;17.126;2024-01-16T01:49:45;6.50;47.60
50738;DHT22;36703;48.154;17.126;2024-01-16T01:53:47;6.50;47.50
50738;DHT22;36703;48.154;17.126;2024-01-16T01:57:49;6.50;47.40
50738;DHT22;36703;48.154;17.126;2024-01-16T02:01:51;6.40;47.40
50738;DHT22;36703;48.154;17.126;2024-01-16T02:05:55;6.60;47.40
50738;DHT22;36703;48.154;17.126;2024-01-16T02:09:57;6.50;47.40
50738;DHT22;36703;48.154;17.126;2024-01-16T02:13:58;6.40;47.20
50738;DHT22;36703;48.154;17.126;2024-01-16T02:18:00;6.40;47.50
50738;DHT22;36703;48.154;17.126;2024-01-16T02:22:02;6.30;47.40
50738;DHT22;36703;48.154;17.126;2024-01-16T02:26:05;6.30;46.80
50738;DHT22;36703;48.154;17.126;2024-01-16T02:30:06;6.60;46.70
50738;DHT22;36703;48.154;17.126;2024-01-16T02:34:08;6.20;45.80
50738;DHT22;36703;48.154;17.126;2024-01-16T02:38:09;6.10;45.10
50738;DHT22;36703;48.154;17.126;2024-01-16T02:42:11;6.00;45.00
50738;DHT22;36703;48.154;17.126;2024-01-16T02:46:13;6.00;44.90
50738;DHT22;36703;48.154;17.126;2024-01-16T02:50:14;6.20;44.90
50738;DHT22;36703;48.154;17.126;2024-01-16T02:54:17;6.10;44.90
50738;DHT22;36703;48.154;17.126;2024-01-16T02:58:18;6.20;44.90
50738;DHT22;36703;48.154;17.126;2024-01-16T03:02:19;6.00;44.80
50738;DHT22;36703;48.154;17.126;2024-01-16T03:06:24;6.10;44.80
50738;DHT22;36703;48.154;17.126;2024-01-16T03:10:26;6.10;44.70
50738;DHT22;36703;48.154;17.126;2024-01-16T03:14:27;6.10;44.90
50738;DHT22;36703;48.154;17.126;2024-01-16T03:18:29;6.00;44.70
50738;DHT22;36703;48.154;17.126;2024-01-16T03:22:33;6.10;45.00
50738;DHT22;36703;48.154;17.126;2024-01-16T03:26:36;6.00;44.80
50738;DHT22;36703;48.154;17.126;2024-01-16T03:30:39;6.00;44.60
50738;DHT22;36703;48.154;17.126;2024-01-16T03:34:40;5.90;44.50
50738;DHT22;36703;48.154;17.126;2024-01-16T03:38:42;5.90;44.50
50738;DHT22;36703;48.154;17.126;2024-01-16T03:42:44;5.90;44.20
50738;DHT22;36703;48.154;17.126;2024-01-16T03:46:45;5.90;44.20
50738;DHT22;36703;48.154;17.126;2024-01-16T03:50:47;5.90;44.10
50738;DHT22;36703;48.154;17.126;2024-01-16T03:54:48;5.90;43.90
50738;DHT22;36703;48.154;17.126;2024-01-16T03:58:49;5.90;43.80
50738;DHT22;36703;48.154;17.126;2024-01-16T04:02:51;5.90;43.80
50738;DHT22;36703;48.154;17.126;2024-01-16T04:06:52;6.00;43.80
50738;DHT22;36703;48.154;17.126;2024-01-16T04:10:53;6.90;44.30
50738;DHT22;36703;48.154;17.126;2024-01-16T04:14:55;5.90;43.70
50738;DHT22;36703;48.154;17.126;2024-01-16T04:18:56;5.80;43.60
50738;DHT22;36703;48.154;17.126;2024-01-16T04:22:57;6.20;43.80
50738;DHT22;36703;48.154;17.126;2024-01-16T04:26:59;5.80;43.40
50738;DHT22;36703;48.154;17.126;2024-01-16T04:31:00;5.90;43.40
50738;DHT22;36703;48.154;17.126;2024-01-16T04:35:02;6.30;43.60
50738;DHT22;36703;48.154;17.126;2024-01-16T04:39:04;5.80;43.30
50738;DHT22;36703;48.154;17.126;2024-01-16T04:43:06;5.80;43.20
50738;DHT22;36703;48.154;17.126;2024-01-16T04:47:07;5.80;43.30
50738;DHT22;36703;48.154;17.126;2024-01-16T04:51:08;5.70;43.30
50738;DHT22;36703;48.154;17.126;2024-01-16T04:55:10;5.80;43.30
50738;DHT22;36703;48.154;17.126;2024-01-16T04:59:11;6.20;43.40
50738;DHT22;36703;48.154;17.126;2024-01-16T05:03:12;5.50;43.10
50738;DHT22;36703;48.154;17.126;2024-01-16T05:07:14;5.70;43.10
50738;DHT22;36703;48.154;17.126;2024-01-16T05:11:15;5.70;43.10
50738;DHT22;36703;48.154;17.126;2024-01-16T05:15:17;5.70;42.90
50738;DHT22;36703;48.154;17.126;2024-01-16T05:19:18;5.70;43.10
50738;DHT22;36703;48.154;17.126;2024-01-16T05:23:19;5.70;42.80
50738;DHT22;36703;48.154;17.126;2024-01-16T05:27:21;5.70;42.80
50738;DHT22;36703;48.154;17.126;2024-01-16T05:31:22;5.70;42.70
50738;DHT22;36703;48.154;17.126;2024-01-16T05:35:23;5.70;42.70
50738;DHT22;36703;48.154;17.126;2024-01-16T05:39:25;5.70;42.70
50738;DHT22;36703;48.154;17.126;2024-01-16T05:43:26;5.70;42.60
50738;DHT22;36703;48.154;17.126;2024-01-16T05:47:29;5.70;43.20
50738;DHT22;36703;48.154;17.126;2024-01-16T05:51:31;5.70;42.70
50738;DHT22;36703;48.154;17.126;2024-01-16T05:55:33;5.70;42.50
50738;DHT22;36703;48.154;17.126;2024-01-16T05:59:36;5.60;42.50
50738;DHT22;36703;48.154;17.126;2024-01-16T06:03:37;5.50;42.50
50738;DHT22;36703;48.154;17.126;2024-01-16T06:07:39;5.70;42.60
50738;DHT22;36703;48.154;17.126;2024-01-16T06:11:41;5.60;42.60
50738;DHT22;36703;48.154;17.126;2024-01-16T06:15:42;6.00;42.80
50738;DHT22;36703;48.154;17.126;2024-01-16T06:19:43;5.60;42.60
50738;DHT22;36703;48.154;17.126;2024-01-16T06:23:45;5.60;43.20
50738;DHT22;36703;48.154;17.126;2024-01-16T06:27:46;5.60;42.60
50738;DHT22;36703;48.154;17.126;2024-01-16T06:31:47;5.60;42.60
50738;DHT22;36703;48.154;17.126;2024-01-16T06:35:49;5.60;42.50
50738;DHT22;36703;48.154;17.126;2024-01-16T06:39:50;5.60;42.60
50738;DHT22;36703;48.154;17.126;2024-01-16T06:43:54;5.80;42.60
50738;DHT22;36703;48.154;17.126;2024-01-16T06:47:55;5.40;42.50
50738;DHT22;36703;48.154;17.126;2024-01-16T06:51:57;5.50;42.40
50738;DHT22;36703;48.154;17.126;2024-01-16T06:55:58;5.60;42.50
50738;DHT22;36703;48.154;17.126;2024-01-16T07:00:00;5.60;42.40
50738;DHT22;36703;48.154;17.126;2024-01-16T07:04:01;5.60;42.40
50738;DHT22;36703;48.154;17.126;2024-01-16T07:08:02;5.60;42.40
50738;DHT22;36703;48.154;17.126;2024-01-16T07:12:04;5.70;42.40
50738;DHT22;36703;48.154;17.126;2024-01-16T07:16:09;5.70;42.30
50738;DHT22;36703;48.154;17.126;2024-01-16T07:20:15;5.80;42.30
50738;DHT22;36703;48.154;17.126;2024-01-16T07:24:16;5.90;42.20
50738;DHT22;36703;48.154;17.126;2024-01-16T07:28:18;6.10;42.00
50738;DHT22;36703;48.154;17.126;2024-01-16T07:32:20;6.20;41.80
50738;DHT22;36703;48.154;17.126;2024-01-16T07:36:21;6.30;41.60
50738;DHT22;36703;48.154;17.126;2024-01-16T07:40:22;6.30;41.40
50738;DHT22;36703;48.154;17.126;2024-01-16T07:44:24;6.40;41.20
50738;DHT22;36703;48.154;17.126;2024-01-16T07:48:26;6.20;41.00
50738;DHT22;36703;48.154;17.126;2024-01-16T07:52:27;6.60;41.00
50738;DHT22;36703;48.154;17.126;2024-01-16T07:56:29;6.50;40.80
50738;DHT22;36703;48.154;17.126;2024-01-16T08:00:30;6.90;40.70
50738;DHT22;36703;48.154;17.126;2024-01-16T08:04:32;7.00;40.50
50738;DHT22;36703;48.154;17.126;2024-01-16T08:08:34;7.20;40.30
50738;DHT22;36703;48.154;17.126;2024-01-16T08:12:35;7.30;40.30
50738;DHT22;36703;48.154;17.126;2024-01-16T08:16:39;7.40;40.10
50738;DHT22;36703;48.154;17.126;2024-01-16T08:20:40;7.20;39.60
50738;DHT22;36703;48.154;17.126;2024-01-16T08:24:42;7.60;39.30
50738;DHT22;36703;48.154;17.126;2024-01-16T08:28:44;7.70;39.00
50738;DHT22;36703;48.154;17.126;2024-01-16T08:32:45;7.80;38.90
50738;DHT22;36703;48.154;17.126;2024-01-16T08:36:47;7.90;38.80
50738;DHT22;36703;48.154;17.126;2024-01-16T08:40:48;8.00;38.60
50738;DHT22;36703;48.154;17.126;2024-01-16T08:44:50;8.10;38.30
50738;DHT22;36703;48.154;17.126;2024-01-16T08:48:51;8.30;37.90
50738;DHT22;36703;48.154;17.126;2024-01-16T08:52:52;8.30;37.60
50738;DHT22;36703;48.154;17.126;2024-01-16T08:56:54;8.50;37.60
50738;DHT22;36703;48.154;17.126;2024-01-16T09:00:55;8.80;37.20
50738;DHT22;36703;48.154;17.126;2024-01-16T09:04:57;8.80;37.00
50738;DHT22;36703;48.154;17.126;2024-01-16T09:08:59;9.00;36.60
50738;DHT22;36703;48.154;17.126;2024-01-16T09:13:00;9.10;36.30
50738;DHT22;36703;48.154;17.126;2024-01-16T09:17:02;9.30;35.80
50738;DHT22;36703;48.154;17.126;2024-01-16T09:21:04;9.30;35.40
50738;DHT22;36703;48.154;17.126;2024-01-16T09:25:05;9.50;35.30
50738;DHT22;36703;48.154;17.126;2024-01-16T09:29:08;9.70;35.00
50738;DHT22;36703;48.154;17.126;2024-01-16T09:33:10;10.00;36.80
50738;DHT22;36703;48.154;17.126;2024-01-16T09:37:12;10.20;38.90
50738;DHT22;36703;48.154;17.126;2024-01-16T09:41:15;10.50;43.70
50738;DHT22;36703;48.154;17.126;2024-01-16T09:45:19;10.70;46.10
50738;DHT22;36703;48.154;17.126;2024-01-16T09:49:21;11.00;48.70
50738;DHT22;36703;48.154;17.126;2024-01-16T09:53:24;11.10;49.80
50738;DHT22;36703;48.154;17.126;2024-01-16T09:57:26;11.30;55.60
50738;DHT22;36703;48.154;17.126;2024-01-16T10:01:27;11.50;47.50
50738;DHT22;36703;48.154;17.126;2024-01-16T10:05:29;11.70;41.50
50738;DHT22;36703;48.154;17.126;2024-01-16T10:09:31;11.80;40.60
50738;DHT22;36703;48.154;17.126;2024-01-16T10:13:32;11.90;40.40
50738;DHT22;36703;48.154;17.126;2024-01-16T10:17:43;12.10;50.50
50738;DHT22;36703;48.154;17.126;2024-01-16T10:21:45;12.10;40.90
50738;DHT22;36703;48.154;17.126;2024-01-16T10:25:46;12.10;39.10
50738;DHT22;36703;48.154;17.126;2024-01-16T10:30:06;12.20;38.10
50738;DHT22;36703;48.154;17.126;2024-01-16T10:34:18;12.20;37.50
50738;DHT22;36703;48.154;17.126;2024-01-16T10:38:21;12.30;29.20
50738;DHT22;36703;48.154;17.126;2024-01-16T10:42:26;12.50;29.30
50738;DHT22;36703;48.154;17.126;2024-01-16T10:46:28;12.70;28.40
50738;DHT22;36703;48.154;17.126;2024-01-16T10:50:29;12.80;28.80
50738;DHT22;36703;48.154;17.126;2024-01-16T10:54:31;13.10;30.50
50738;DHT22;36703;48.154;17.126;2024-01-16T10:58:33;12.90;30.00
50738;DHT22;36703;48.154;17.126;2024-01-16T11:02:38;13.00;29.80
50738;DHT22;36703;48.154;17.126;2024-01-16T11:06:44;12.70;29.50
50738;DHT22;36703;48.154;17.126;2024-01-16T11:10:45;12.60;29.40
50738;DHT22;36703;48.154;17.126;2024-01-16T11:14:49;12.80;29.70
50738;DHT22;36703;48.154;17.126;2024-01-16T11:18:52;12.80;29.90
50738;DHT22;36703;48.154;17.126;2024-01-16T11:22:54;12.90;29.70
50738;DHT22;36703;48.154;17.126;2024-01-16T11:27:00;12.80;29.50
50738;DHT22;36703;48.154;17.126;2024-01-16T11:31:16;12.90;30.00
50738;DHT22;36703;48.154;17.126;2024-01-16T11:35:33;13.00;29.60
50738;DHT22;36703;48.154;17.126;2024-01-16T11:39:35;13.10;29.30
50738;DHT22;36703;48.154;17.126;2024-01-16T11:43:36;13.20;29.90
50738;DHT22;36703;48.154;17.126;2024-01-16T11:47:38;13.40;44.40
50738;DHT22;36703;48.154;17.126;2024-01-16T11:51:40;13.50;44.00
50738;DHT22;36703;48.154;17.126;2024-01-16T12:00:05;13.30;42.90
50738;DHT22;36703;48.154;17.126;2024-01-16T12:04:16;13.10;42.60
50738;DHT22;36703;48.154;17.126;2024-01-16T12:08:20;12.80;41.80
50738;DHT22;36703;48.154;17.126;2024-01-16T12:12:22;13.00;42.90
50738;DHT22;36703;48.154;17.126;2024-01-16T12:16:24;13.10;42.80
50738;DHT22;36703;48.154;17.126;2024-01-16T12:20:26;13.10;42.40
50738;DHT22;36703;48.154;17.126;2024-01-16T12:24:29;13.10;42.20
50738;DHT22;36703;48.154;17.126;2024-01-16T12:28:30;13.10;42.40
50738;DHT22;36703;48.154;17.126;2024-01-16T12:32:32;13.20;42.40
50738;DHT22;36703;48.154;17.126;2024-01-16T12:36:33;13.30;42.30
50738;DHT22;36703;48.154;17.126;2024-01-16T12:40:42;13.10;41.90
50738;DHT22;36703;48.154;17.126;2024-01-16T12:44:46;12.80;41.80
50738;DHT22;36703;48.154;17.126;2024-01-16T12:48:47;12.60;42.20
50738;DHT22;36703;48.154;17.126;2024-01-16T12:53:05;12.50;42.30
50738;DHT22;36703;48.154;17.126;2024-01-16T12:57:06;12.40;42.20
50738;DHT22;36703;48.154;17.126;2024-01-16T13:01:24;12.00;42.00
50738;DHT22;36703;48.154;17.126;2024-01-16T13:05:26;11.70;42.00
50738;DHT22;36703;48.154;17.126;2024-01-16T13:09:27;11.50;42.30
50738;DHT22;36703;48.154;17.126;2024-01-16T13:13:29;11.30;42.10
50738;DHT22;36703;48.154;17.126;2024-01-16T13:17:30;11.00;42.30
50738;DHT22;36703;48.154;17.126;2024-01-16T13:21:32;10.80;41.00
50738;DHT22;36703;48.154;17.126;2024-01-16T13:25:34;10.60;41.30
50738;DHT22;36703;48.154;17.126;2024-01-16T13:29:35;10.20;33.60
50738;DHT22;36703;48.154;17.126;2024-01-16T13:33:40;10.20;34.10
50738;DHT22;36703;48.154;17.126;2024-01-16T13:37:41;10.20;34.00
50738;DHT22;36703;48.154;17.126;2024-01-16T13:41:43;10.50;33.80
50738;DHT22;36703;48.154;17.126;2024-01-16T13:45:45;10.60;33.60
50738;DHT22;36703;48.154;17.126;2024-01-16T13:49:50;10.70;33.70
50738;DHT22;36703;48.154;17.126;2024-01-16T13:53:51;10.80;34.00
50738;DHT22;36703;48.154;17.126;2024-01-16T13:57:53;10.70;33.80
50738;DHT22;36703;48.154;17.126;2024-01-16T14:01:54;10.70;34.00
50738;DHT22;36703;48.154;17.126;2024-01-16T14:05:56;11.00;34.20
50738;DHT22;36703;48.154;17.126;2024-01-16T14:09:57;10.70;34.30
50738;DHT22;36703;48.154;17.126;2024-01-16T14:13:58;10.70;35.10
50738;DHT22;36703;48.154;17.126;2024-01-16T14:18:00;10.50;34.30
50738;DHT22;36703;48.154;17.126;2024-01-16T14:22:02;10.60;34.50
50738;DHT22;36703;48.154;17.126;2024-01-16T14:26:03;10.50;34.40
50738;DHT22;36703;48.154;17.126;2024-01-16T14:30:05;10.80;34.70
50738;DHT22;36703;48.154;17.126;2024-01-16T14:34:16;10.40;34.40
50738;DHT22;36703;48.154;17.126;2024-01-16T14:38:18;10.60;34.80
50738;DHT22;36703;48.154;17.126;2024-01-16T14:42:19;10.30;35.00
50738;DHT22;36703;48.154;17.126;2024-01-16T14:46:21;10.90;35.30
50738;DHT22;36703;48.154;17.126;2024-01-16T14:50:22;10.20;35.10
50738;DHT22;36703;48.154;17.126;2024-01-16T14:54:25;10.60;35.10
50738;DHT22;36703;48.154;17.126;2024-01-16T14:58:26;10.10;35.10
50738;DHT22;36703;48.154;17.126;2024-01-16T15:02:27;10.00;35.20
50738;DHT22;36703;48.154;17.126;2024-01-16T15:06:30;9.90;35.30
50738;DHT22;36703;48.154;17.126;2024-01-16T15:10:32;10.00;35.60
50738;DHT22;36703;48.154;17.126;2024-01-16T15:14:33;9.90;35.60
50738;DHT22;36703;48.154;17.126;2024-01-16T15:18:35;10.40;36.10
50738;DHT22;36703;48.154;17.126;2024-01-16T15:22:39;9.50;36.50
50738;DHT22;36703;48.154;17.126;2024-01-16T15:26:45;9.80;35.40
50738;DHT22;36703;48.154;17.126;2024-01-16T15:30:46;9.90;35.70
50738;DHT22;36703;48.154;17.126;2024-01-16T15:34:48;9.80;35.70
50738;DHT22;36703;48.154;17.126;2024-01-16T15:38:49;9.60;35.90
50738;DHT22;36703;48.154;17.126;2024-01-16T15:42:51;9.70;36.90
50738;DHT22;36703;48.154;17.126;2024-01-16T15:46:59;9.50;35.80
50738;DHT22;36703;48.154;17.126;2024-01-16T15:51:02;9.60;36.40
50738;DHT22;36703;48.154;17.126;2024-01-16T15:55:06;9.50;36.60
50738;DHT22;36703;48.154;17.126;2024-01-16T15:59:08;9.40;40.00
50738;DHT22;36703;48.154;17.126;2024-01-16T16:03:10;9.40;40.00
50738;DHT22;36703;48.154;17.126;2024-01-16T16:07:12;9.50;40.20
50738;DHT22;36703;48.154;17.126;2024-01-16T16:11:14;9.30;40.20
50738;DHT22;36703;48.154;17.126;2024-01-16T16:15:15;9.20;40.20
50738;DHT22;36703;48.154;17.126;2024-01-16T16:19:16;9.30;40.10
50738;DHT22;36703;48.154;17.126;2024-01-16T16:23:18;9.50;40.20
50738;DHT22;36703;48.154;17.126;2024-01-16T16:27:23;9.30;40.40
50738;DHT22;36703;48.154;17.126;2024-01-16T16:31:26;9.30;40.10
50738;DHT22;36703;48.154;17.126;2024-01-16T16:35:27;9.30;40.30
50738;DHT22;36703;48.154;17.126;2024-01-16T16:39:28;9.80;40.80
50738;DHT22;36703;48.154;17.126;2024-01-16T16:43:30;9.30;40.50
50738;DHT22;36703;48.154;17.126;2024-01-16T16:47:31;9.50;40.70
50738;DHT22;36703;48.154;17.126;2024-01-16T16:51:32;9.20;40.60
50738;DHT22;36703;48.154;17.126;2024-01-16T16:55:39;9.10;40.60
50738;DHT22;36703;48.154;17.126;2024-01-16T16:59:41;9.10;40.90
50738;DHT22;36703;48.154;17.126;2024-01-16T17:03:42;9.10;40.80
50738;DHT22;36703;48.154;17.126;2024-01-16T17:07:46;9.10;40.70
50738;DHT22;36703;48.154;17.126;2024-01-16T17:11:47;9.20;41.40
50738;DHT22;36703;48.154;17.126;2024-01-16T17:15:49;9.10;40.80
50738;DHT22;36703;48.154;17.126;2024-01-16T17:19:50;9.20;41.10
50738;DHT22;36703;48.154;17.126;2024-01-16T17:23:51;9.20;41.40
50738;DHT22;36703;48.154;17.126;2024-01-16T17:27:53;9.20;41.10
50738;DHT22;36703;48.154;17.126;2024-01-16T17:31:55;9.10;41.20
50738;DHT22;36703;48.154;17.126;2024-01-16T17:35:57;9.10;41.20
50738;DHT22;36703;48.154;17.126;2024-01-16T17:40:05;9.10;41.20
50738;DHT22;36703;48.154;17.126;2024-01-16T17:44:13;8.80;40.90
50738;DHT22;36703;48.154;17.126;2024-01-16T17:48:14;9.00;43.00
50738;DHT22;36703;48.154;17.126;2024-01-16T17:52:19;8.90;43.80
50738;DHT22;36703;48.154;17.126;2024-01-16T17:56:21;8.90;45.50
50738;DHT22;36703;48.154;17.126;2024-01-16T18:00:22;8.80;48.30
50738;DHT22;36703;48.154;17.126;2024-01-16T18:04:25;8.80;49.20
50738;DHT22;36703;48.154;17.126;2024-01-16T18:08:26;8.90;51.20
50738;DHT22;36703;48.154;17.126;2024-01-16T18:12:28;8.70;49.80
50738;DHT22;36703;48.154;17.126;2024-01-16T18:16:31;8.90;50.40
50738;DHT22;36703;48.154;17.126;2024-01-16T18:20:33;8.70;50.30
50738;DHT22;36703;48.154;17.126;2024-01-16T18:24:35;8.70;50.60
50738;DHT22;36703;48.154;17.126;2024-01-16T18:28:38;8.60;52.10
50738;DHT22;36703;48.154;17.126;2024-01-16T18:32:44;8.60;55.60
50738;DHT22;36703;48.154;17.126;2024-01-16T18:36:48;8.60;55.90
50738;DHT22;36703;48.154;17.126;2024-01-16T18:40:53;8.50;55.10
50738;DHT22;36703;48.154;17.126;2024-01-16T18:44:56;8.40;52.40
50738;DHT22;36703;48.154;17.126;2024-01-16T18:48:58;8.40;53.90
50738;DHT22;36703;48.154;17.126;2024-01-16T18:53:00;8.30;55.20
50738;DHT22;36703;48.154;17.126;2024-01-16T18:57:01;8.40;55.80
50738;DHT22;36703;48.154;17.126;2024-01-16T19:01:03;8.20;53.20
50738;DHT22;36703;48.154;17.126;2024-01-16T19:05:06;8.30;51.20
50738;DHT22;36703;48.154;17.126;2024-01-16T19:09:08;8.20;49.70
50738;DHT22;36703;48.154;17.126;2024-01-16T19:13:11;8.10;40.70
50738;DHT22;36703;48.154;17.126;2024-01-16T19:17:15;8.00;42.00
50738;DHT22;36703;48.154;17.126;2024-01-16T19:21:16;8.10;40.20
50738;DHT22;36703;48.154;17.126;2024-01-16T19:25:18;8.10;39.70
50738;DHT22;36703;48.154;17.126;2024-01-16T19:29:19;8.20;39.30
50738;DHT22;36703;48.154;17.126;2024-01-16T19:33:21;8.20;39.30
50738;DHT22;36703;48.154;17.126;2024-01-16T19:37:22;8.20;39.50
50738;DHT22;36703;48.154;17.126;2024-01-16T19:41:24;8.00;39.40
50738;DHT22;36703;48.154;17.126;2024-01-16T19:45:25;8.00;39.50
50738;DHT22;36703;48.154;17.126;2024-01-16T19:49:26;8.00;39.70
50738;DHT22;36703;48.154;17.126;2024-01-16T19:53:28;7.90;40.90
50738;DHT22;36703;48.154;17.126;2024-01-16T19:57:29;7.80;40.40
50738;DHT22;36703;48.154;17.126;2024-01-16T20:01:31;7.90;37.30
50738;DHT22;36703;48.154;17.126;2024-01-16T20:05:33;7.60;44.80
50738;DHT22;36703;48.154;17.126;2024-01-16T20:09:38;7.30;40.90
50738;DHT22;36703;48.154;17.126;2024-01-16T20:13:40;7.40;50.90
50738;DHT22;36703;48.154;17.126;2024-01-16T20:17:42;7.40;50.60
50738;DHT22;36703;48.154;17.126;2024-01-16T20:21:43;7.50;50.40
50738;DHT22;36703;48.154;17.126;2024-01-16T20:25:46;7.60;50.60
50738;DHT22;36703;48.154;17.126;2024-01-16T20:29:48;7.20;51.00
50738;DHT22;36703;48.154;17.126;2024-01-16T20:33:49;7.30;53.40
50738;DHT22;36703;48.154;17.126;2024-01-16T20:37:51;7.10;51.80
50738;DHT22;36703;48.154;17.126;2024-01-16T20:41:52;7.20;56.90
50738;DHT22;36703;48.154;17.126;2024-01-16T20:45:54;6.90;54.80
50738;DHT22;36703;48.154;17.126;2024-01-16T20:49:56;7.90;55.70
50738;DHT22;36703;48.154;17.126;2024-01-16T20:53:58;6.60;54.60
50738;DHT22;36703;48.154;17.126;2024-01-16T20:57:59;7.50;55.70
50738;DHT22;36703;48.154;17.126;2024-01-16T21:02:01;6.80;55.40
50738;DHT22;36703;48.154;17.126;2024-01-16T21:06:03;6.80;55.30
50738;DHT22;36703;48.154;17.126;2024-01-16T21:10:05;6.90;55.10
50738;DHT22;36703;48.154;17.126;2024-01-16T21:14:06;6.80;54.50
50738;DHT22;36703;48.154;17.126;2024-01-16T21:18:08;6.90;55.20
50738;DHT22;36703;48.154;17.126;2024-01-16T21:22:09;6.80;54.40
50738;DHT22;36703;48.154;17.126;2024-01-16T21:26:10;6.50;55.10
50738;DHT22;36703;48.154;17.126;2024-01-16T21:30:12;6.80;55.70
50738;DHT22;36703;48.154;17.126;2024-01-16T21:34:14;6.80;55.60
50738;DHT22;36703;48.154;17.126;2024-01-16T21:38:18;6.90;55.70
50738;DHT22;36703;48.154;17.126;2024-01-16T21:42:20;6.70;55.90
50738;DHT22;36703;48.154;17.126;2024-01-16T21:46:21;6.70;55.90
50738;DHT22;36703;48.154;17.126;2024-01-16T21:50:23;6.50;53.30
50738;DHT22;36703;48.154;17.126;2024-01-16T21:54:25;6.40;55.70
50738;DHT22;36703;48.154;17.126;2024-01-16T21:58:28;6.40;55.70
50738;DHT22;36703;48.154;17.126;2024-01-16T22:02:29;6.60;56.30
50738;DHT22;36703;48.154;17.126;2024-01-16T22:06:32;6.30;56.90
50738;DHT22;36703;48.154;17.126;2024-01-16T22:10:33;6.20;54.40
50738;DHT22;36703;48.154;17.126;2024-01-16T22:14:34;6.20;55.30
50738;DHT22;36703;48.154;17.126;2024-01-16T22:18:38;6.00;54.30
50738;DHT22;36703;48.154;17.126;2024-01-16T22:22:40;6.40;54.90
50738;DHT22;36703;48.154;17.126;2024-01-16T22:26:41;7.10;55.80
50738;DHT22;36703;48.154;17.126;2024-01-16T22:30:44;6.20;54.20
50738;DHT22;36703;48.154;17.126;2024-01-16T22:34:45;8.40;53.90
50738;DHT22;36703;48.154;17.126;2024-01-16T22:38:46;6.00;58.00
50738;DHT22;36703;48.154;17.126;2024-01-16T22:42:48;5.90;58.10
50738;DHT22;36703;48.154;17.126;2024-01-16T22:46:49;6.20;57.90
50738;DHT22;36703;48.154;17.126;2024-01-16T22:50:51;5.90;57.90
50738;DHT22;36703;48.154;17.126;2024-01-16T22:54:52;6.40;58.30
50738;DHT22;36703;48.154;17.126;2024-01-16T22:58:53;5.80;57.30
50738;DHT22;36703;48.154;17.126;2024-01-16T23:02:55;6.20;58.20
50738;DHT22;36703;48.154;17.126;2024-01-16T23:06:57;5.90;57.60
50738;DHT22;36703;48.154;17.126;2024-01-16T23:10:58;5.80;57.60
50738;DHT22;36703;48.154;17.126;2024-01-16T23:15:00;5.80;57.70
50738;DHT22;36703;48.154;17.126;2024-01-16T23:19:02;5.80;58.10
50738;DHT22;36703;48.154;17.126;2024-01-16T23:23:03;5.80;57.70
50738;DHT22;36703;48.154;17.126;2024-01-16T23:27:07;5.80;57.90
50738;DHT22;36703;48.154;17.126;2024-01-16T23:31:11;5.60;57.70
50738;DHT22;36703;48.154;17.126;2024-01-16T23:35:13;5.70;57.70
50738;DHT22;36703;48.154;17.126;2024-01-16T23:39:15;5.60;56.80
50738;DHT22;36703;48.154;17.126;2024-01-16T23:43:16;5.60;56.20
50738;DHT22;36703;48.154;17.126;2024-01-16T23:47:20;5.60;57.70
50738;DHT22;36703;48.154;17.126;2024-01-16T23:51:21;5.60;57.70
50738;DHT22;36703;48.154;17.126;2024-01-16T23:55:23;5.60;57.70
50738;DHT22;36703;48.154;17.126;2024-01-16T23:59:24;5.60;56.80
